createdAt,value
2019-02-08T00:00:50.196Z,101309.20
2019-02-08T00:03:17.277Z,101310.45
2019-02-08T00:05:44.332Z,101296.94
2019-02-08T00:08:11.400Z,101300.23
2019-02-08T00:10:38.776Z,101308.31
2019-02-08T00:13:07.077Z,101312.28
2019-02-08T00:15:34.219Z,101304.70
2019-02-08T00:18:01.335Z,101303.52
2019-02-08T00:20:28.400Z,101301.50
2019-02-08T00:22:55.448Z,101310.77
2019-02-08T00:25:22.726Z,101310.55
2019-02-08T00:27:49.842Z,101309.38
2019-02-08T00:30:19.477Z,101313.00
2019-02-08T00:32:46.639Z,101316.35
2019-02-08T00:35:13.677Z,101318.70
2019-02-08T00:37:40.836Z,101312.35
2019-02-08T00:40:09.831Z,101303.57
2019-02-08T00:42:36.873Z,101301.30
2019-02-08T00:45:05.046Z,101308.81
2019-02-08T00:47:32.373Z,101313.64
2019-02-08T00:49:59.440Z,101307.94
2019-02-08T00:52:26.490Z,101311.87
2019-02-08T00:54:53.583Z,101312.45
2019-02-08T00:57:20.635Z,101309.69
2019-02-08T00:59:47.685Z,101302.36
2019-02-08T01:02:14.769Z,101305.38
2019-02-08T01:04:41.803Z,101303.50
2019-02-08T01:07:09.351Z,101309.05
2019-02-08T01:09:36.445Z,101305.39
2019-02-08T01:12:03.909Z,101302.70
2019-02-08T01:14:31.489Z,101302.99
2019-02-08T01:16:58.569Z,101297.48
2019-02-08T01:19:25.617Z,101306.77
2019-02-08T01:21:52.678Z,101300.88
2019-02-08T01:24:19.764Z,101296.06
2019-02-08T01:26:46.840Z,101305.19
2019-02-08T01:29:13.879Z,101298.19
2019-02-08T01:31:40.970Z,101310.66
2019-02-08T01:34:08.052Z,101302.91
2019-02-08T01:36:35.088Z,101301.52
2019-02-08T01:39:02.153Z,101303.89
2019-02-08T01:41:29.196Z,101304.30
2019-02-08T01:43:56.318Z,101306.91
2019-02-08T01:46:23.508Z,101306.41
2019-02-08T01:48:50.558Z,101304.30
2019-02-08T01:51:17.672Z,101301.94
2019-02-08T01:53:48.677Z,101295.36
2019-02-08T01:56:13.660Z,101300.73
2019-02-08T01:58:40.764Z,101288.66
2019-02-08T02:01:07.812Z,101302.83
2019-02-08T02:03:34.856Z,101297.93
2019-02-08T02:06:01.930Z,101291.72
2019-02-08T02:08:29.019Z,101293.66
2019-02-08T02:10:56.066Z,101291.93
2019-02-08T02:13:23.254Z,101295.10
2019-02-08T02:15:50.297Z,101290.03
2019-02-08T02:18:17.338Z,101271.66
2019-02-08T02:20:44.530Z,101279.87
2019-02-08T02:23:15.360Z,101286.32
2019-02-08T02:25:43.449Z,101283.45
2019-02-08T02:28:10.739Z,101288.22
2019-02-08T02:30:37.820Z,101278.48
2019-02-08T02:33:06.531Z,101281.59
2019-02-08T02:35:33.573Z,101284.83
2019-02-08T02:38:00.665Z,101286.43
2019-02-08T02:40:27.724Z,101283.63
2019-02-08T02:42:54.794Z,101280.05
2019-02-08T02:45:24.330Z,101273.70
2019-02-08T02:47:51.467Z,101269.91
2019-02-08T02:50:19.117Z,101274.91
2019-02-08T02:52:46.251Z,101268.52
2019-02-08T02:55:13.639Z,101273.15
2019-02-08T02:57:40.728Z,101267.70
2019-02-08T03:00:11.880Z,101268.26
2019-02-08T03:02:38.931Z,101263.13
2019-02-08T03:05:06.338Z,101268.58
2019-02-08T03:07:33.400Z,101263.77
2019-02-08T03:10:00.447Z,101259.23
2019-02-08T03:12:27.542Z,101255.66
2019-02-08T03:14:54.597Z,101254.62
2019-02-08T03:17:21.708Z,101250.02
2019-02-08T03:19:48.829Z,101253.33
2019-02-08T03:22:15.861Z,101260.49
2019-02-08T03:24:42.905Z,101252.72
2019-02-08T03:27:09.990Z,101248.88
2019-02-08T03:29:37.029Z,101248.53
2019-02-08T03:32:04.128Z,101245.75
2019-02-08T03:34:31.217Z,101235.58
2019-02-08T03:36:58.274Z,101235.58
2019-02-08T03:39:25.312Z,101236.69
2019-02-08T03:41:52.384Z,101243.01
2019-02-08T03:44:19.431Z,101231.66
2019-02-08T03:46:46.518Z,101231.45
2019-02-08T03:49:13.598Z,101237.30
2019-02-08T03:51:40.765Z,101237.58
2019-02-08T03:54:07.816Z,101235.52
2019-02-08T03:56:34.891Z,101234.55
2019-02-08T03:59:01.968Z,101234.28
2019-02-08T04:01:29.017Z,101226.22
2019-02-08T04:04:11.488Z,101224.91
2019-02-08T04:06:38.540Z,101223.95
2019-02-08T04:09:07.375Z,101226.64
2019-02-08T04:11:34.464Z,101228.83
2019-02-08T04:14:01.506Z,101227.80
2019-02-08T04:16:28.549Z,101225.83
2019-02-08T04:18:55.827Z,101230.09
2019-02-08T04:21:22.859Z,101224.45
2019-02-08T04:23:49.915Z,101229.89
2019-02-08T04:26:17.000Z,101219.69
2019-02-08T04:28:44.077Z,101223.77
2019-02-08T04:31:11.225Z,101213.73
2019-02-08T04:33:38.314Z,101217.65
2019-02-08T04:36:05.361Z,101218.88
2019-02-08T04:38:32.406Z,101219.37
2019-02-08T04:40:59.517Z,101224.66
2019-02-08T04:43:26.557Z,101224.84
2019-02-08T04:45:53.616Z,101219.85
2019-02-08T04:48:20.770Z,101214.07
2019-02-08T04:50:47.827Z,101207.53
2019-02-08T04:53:14.886Z,101207.02
2019-02-08T04:55:41.969Z,101208.98
2019-02-08T04:58:09.035Z,101214.55
2019-02-08T05:00:36.414Z,101201.14
2019-02-08T05:03:04.070Z,101201.31
2019-02-08T05:05:31.117Z,101200.91
2019-02-08T05:07:58.277Z,101199.67
2019-02-08T05:10:27.023Z,101196.22
2019-02-08T05:12:54.072Z,101192.58
2019-02-08T05:15:23.060Z,101194.44
2019-02-08T05:17:50.405Z,101194.30
2019-02-08T05:20:18.793Z,101187.84
2019-02-08T05:22:45.869Z,101198.02
2019-02-08T05:25:13.672Z,101188.38
2019-02-08T05:27:40.720Z,101197.81
2019-02-08T05:30:12.280Z,101198.08
2019-02-08T05:32:39.349Z,101200.84
2019-02-08T05:35:07.023Z,101190.30
2019-02-08T05:37:34.161Z,101193.67
2019-02-08T05:40:01.227Z,101197.39
2019-02-08T05:42:28.269Z,101190.23
2019-02-08T05:44:55.385Z,101192.98
2019-02-08T05:47:22.423Z,101194.02
2019-02-08T05:49:49.515Z,101183.15
2019-02-08T05:52:16.618Z,101187.90
2019-02-08T05:54:43.664Z,101178.53
2019-02-08T05:57:10.716Z,101177.43
2019-02-08T05:59:37.831Z,101181.42
2019-02-08T06:02:05.330Z,101180.52
2019-02-08T06:04:32.366Z,101177.41
2019-02-08T06:06:59.471Z,101173.97
2019-02-08T06:09:26.554Z,101149.73
2019-02-08T06:11:53.638Z,101166.61
2019-02-08T06:14:20.761Z,101159.30
2019-02-08T06:16:47.818Z,101173.34
2019-02-08T06:19:14.863Z,101166.19
2019-02-08T06:21:41.964Z,101173.95
2019-02-08T06:24:09.022Z,101172.38
2019-02-08T06:26:36.099Z,101169.28
2019-02-08T06:29:03.506Z,101171.48
2019-02-08T06:31:30.595Z,101154.42
2019-02-08T06:33:57.691Z,101162.20
2019-02-08T06:36:24.822Z,101152.22
2019-02-08T06:38:52.053Z,101158.54
2019-02-08T06:41:19.121Z,101163.29
2019-02-08T06:43:46.318Z,101162.20
2019-02-08T06:46:13.394Z,101160.20
2019-02-08T06:48:40.475Z,101161.98
2019-02-08T06:51:07.559Z,101165.23
2019-02-08T06:53:34.610Z,101161.92
2019-02-08T06:56:01.709Z,101157.71
2019-02-08T06:58:42.564Z,101151.87
2019-02-08T07:01:22.347Z,101163.09
2019-02-08T07:04:15.078Z,101163.86
2019-02-08T07:07:06.225Z,101157.45
2019-02-08T07:09:58.945Z,101150.98
2019-02-08T07:12:38.524Z,101149.95
2019-02-08T07:15:24.065Z,101155.86
2019-02-08T07:18:25.896Z,101151.87
2019-02-08T07:21:12.569Z,101153.30
2019-02-08T07:23:59.218Z,101151.78
2019-02-08T07:26:46.076Z,101151.94
2019-02-08T07:32:28.376Z,101156.19
2019-02-08T07:35:14.037Z,101154.66
2019-02-08T07:41:05.348Z,101157.88
2019-02-08T07:43:55.435Z,101149.33
2019-02-08T07:46:48.663Z,101153.61
2019-02-08T07:49:35.639Z,101157.18
2019-02-08T07:52:31.289Z,101167.17
2019-02-08T07:55:26.088Z,101170.05
2019-02-08T07:58:15.562Z,101161.27
2019-02-08T08:01:08.649Z,101157.98
2019-02-08T08:03:44.999Z,101154.59
2019-02-08T08:06:41.279Z,101164.78
2019-02-08T08:09:35.448Z,101145.14
2019-02-08T08:12:27.953Z,101154.38
2019-02-08T08:15:10.394Z,101157.55
2019-02-08T08:18:03.025Z,101153.98
2019-02-08T08:20:47.978Z,101146.25
2019-02-08T08:23:32.559Z,101159.05
2019-02-08T08:26:24.086Z,101151.20
2019-02-08T08:29:09.143Z,101156.45
2019-02-08T08:31:48.350Z,101166.63
2019-02-08T08:34:31.199Z,101160.73
2019-02-08T08:37:22.925Z,101163.00
2019-02-08T08:40:42.533Z,101165.50
2019-02-08T08:43:42.444Z,101157.88
2019-02-08T08:46:52.057Z,101152.29
2019-02-08T08:49:53.393Z,101152.83
2019-02-08T08:53:00.445Z,101147.77
2019-02-08T08:55:59.000Z,101149.53
2019-02-08T08:59:06.817Z,101135.48
2019-02-08T09:02:16.561Z,101142.03
2019-02-08T09:05:13.915Z,101133.58
2019-02-08T09:08:10.799Z,101126.06
2019-02-08T09:11:34.613Z,101121.35
2019-02-08T09:14:46.717Z,101109.01
2019-02-08T09:18:10.502Z,101103.23
2019-02-08T09:21:06.375Z,101106.97
2019-02-08T09:24:09.294Z,101114.67
2019-02-08T09:27:18.015Z,101107.17
2019-02-08T09:30:18.506Z,101098.58
2019-02-08T09:33:13.664Z,101110.75
2019-02-08T09:36:31.184Z,101101.16
2019-02-08T09:39:35.824Z,101081.55
2019-02-08T09:42:18.216Z,101101.55
2019-02-08T09:45:22.731Z,101091.69
2019-02-08T09:48:25.450Z,101090.06
2019-02-08T09:51:37.026Z,101086.41
2019-02-08T09:54:27.398Z,101085.10
2019-02-08T09:57:38.868Z,101068.14
2019-02-08T10:00:50.201Z,101075.91
2019-02-08T10:03:44.159Z,101065.52
2019-02-08T10:07:05.015Z,101053.20
2019-02-08T10:10:09.425Z,101054.41
2019-02-08T10:13:32.159Z,101053.22
2019-02-08T10:16:48.784Z,101052.89
2019-02-08T10:20:16.930Z,101051.26
2019-02-08T10:23:26.062Z,101066.02
2019-02-08T10:26:32.110Z,101063.67
2019-02-08T10:29:39.424Z,101058.13
2019-02-08T10:32:59.044Z,101053.17
2019-02-08T10:36:17.932Z,101051.53
2019-02-08T10:39:33.107Z,101047.82
2019-02-08T10:42:43.415Z,101039.89
2019-02-08T10:45:49.272Z,101044.97
2019-02-08T10:49:13.437Z,101042.72
2019-02-08T10:52:16.781Z,101017.88
2019-02-08T10:55:40.722Z,101020.92
2019-02-08T10:59:03.122Z,101013.27
2019-02-08T11:02:13.824Z,101012.14
2019-02-08T11:05:28.596Z,101002.38
2019-02-08T11:08:27.062Z,100991.58
2019-02-08T11:11:24.998Z,100997.39
2019-02-08T11:14:38.145Z,100997.23
2019-02-08T11:17:34.026Z,100970.31
2019-02-08T11:20:01.078Z,100972.52
2019-02-08T11:22:28.119Z,100967.56
2019-02-08T11:24:55.199Z,100967.78
2019-02-08T11:27:22.760Z,100957.41
2019-02-08T11:29:49.839Z,100969.17
2019-02-08T11:32:16.972Z,100954.83
2019-02-08T11:34:44.051Z,100947.32
2019-02-08T11:37:11.209Z,100945.00
2019-02-08T11:39:38.636Z,100956.45
2019-02-08T11:42:05.687Z,100952.36
2019-02-08T11:44:32.746Z,100942.27
2019-02-08T11:46:59.868Z,100940.95
2019-02-08T11:49:27.155Z,100927.72
2019-02-08T11:51:54.226Z,100934.87
2019-02-08T11:54:22.397Z,100938.31
2019-02-08T11:56:49.456Z,100937.05
2019-02-08T11:59:16.512Z,100933.06
2019-02-08T12:01:46.324Z,100928.81
2019-02-08T12:04:13.379Z,100919.98
2019-02-08T12:06:40.418Z,100913.26
2019-02-08T12:09:10.131Z,100903.32
2019-02-08T12:11:37.183Z,100897.91
2019-02-08T12:14:04.367Z,100904.52
2019-02-08T12:16:31.449Z,100910.66
2019-02-08T12:18:58.490Z,100906.88
2019-02-08T12:21:25.606Z,100903.94
2019-02-08T12:23:52.653Z,100908.20
2019-02-08T12:26:19.708Z,100901.19
2019-02-08T12:28:46.790Z,100899.84
2019-02-08T12:31:13.831Z,100884.80
2019-02-08T12:33:40.945Z,100881.31
2019-02-08T12:36:08.122Z,100892.77
2019-02-08T12:38:35.205Z,100875.16
2019-02-08T12:41:09.503Z,100854.91
2019-02-08T12:43:31.536Z,100885.61
2019-02-08T12:45:58.829Z,100879.46
2019-02-08T12:48:25.926Z,100891.88
2019-02-08T12:50:53.006Z,100857.50
2019-02-08T12:53:20.063Z,100873.89
2019-02-08T12:55:47.170Z,100869.98
2019-02-08T12:58:14.233Z,100862.83
2019-02-08T13:00:41.309Z,100859.39
2019-02-08T13:03:08.402Z,100858.31
2019-02-08T13:05:35.670Z,100852.27
2019-02-08T13:08:03.176Z,100832.37
2019-02-08T13:10:30.390Z,100837.19
2019-02-08T13:12:57.466Z,100820.76
2019-02-08T13:15:24.516Z,100825.17
2019-02-08T13:17:51.642Z,100816.02
2019-02-08T13:20:18.753Z,100801.13
2019-02-08T13:22:45.822Z,100805.34
2019-02-08T13:25:13.661Z,100805.81
2019-02-08T13:27:40.732Z,100803.27
2019-02-08T13:30:19.479Z,100800.94
2019-02-08T13:32:46.585Z,100798.28
2019-02-08T13:35:13.803Z,100793.75
2019-02-08T13:37:40.999Z,100792.09
2019-02-08T13:40:09.997Z,100764.00
2019-02-08T13:42:37.067Z,100767.40
2019-02-08T13:45:04.875Z,100763.95
2019-02-08T13:47:31.951Z,100776.02
2019-02-08T13:49:59.008Z,100756.31
2019-02-08T13:52:26.158Z,100748.19
2019-02-08T13:54:53.192Z,100754.30
2019-02-08T13:57:20.245Z,100751.55
2019-02-08T13:59:47.352Z,100753.68
2019-02-08T14:02:14.397Z,100751.36
2019-02-08T14:04:41.484Z,100736.33
2019-02-08T14:07:08.594Z,100737.14
2019-02-08T14:09:41.963Z,100740.12
2019-02-08T14:12:09.023Z,100738.69
2019-02-08T14:14:36.124Z,100735.56
2019-02-08T14:17:03.691Z,100732.00
2019-02-08T14:19:30.889Z,100728.84
2019-02-08T14:21:58.174Z,100700.66
2019-02-08T14:24:25.253Z,100722.92
2019-02-08T14:26:52.339Z,100703.14
2019-02-08T14:29:19.584Z,100712.17
2019-02-08T14:31:46.632Z,100730.38
2019-02-08T14:34:13.753Z,100717.24
2019-02-08T14:36:40.843Z,100729.38
2019-02-08T14:39:09.383Z,100711.45
2019-02-08T14:41:36.449Z,100712.84
2019-02-08T14:44:03.579Z,100729.99
2019-02-08T14:46:30.642Z,100721.58
2019-02-08T14:48:57.717Z,100719.31
2019-02-08T14:51:24.822Z,100721.48
2019-02-08T14:53:51.924Z,100720.30
2019-02-08T14:56:18.990Z,100717.50
2019-02-08T14:58:46.097Z,100716.58
2019-02-08T15:01:13.165Z,100709.82
2019-02-08T15:03:40.235Z,100710.36
2019-02-08T15:06:07.322Z,100721.19
2019-02-08T15:08:34.427Z,100710.17
2019-02-08T15:11:01.465Z,100709.75
2019-02-08T15:13:28.561Z,100710.45
2019-02-08T15:15:55.631Z,100690.61
2019-02-08T15:18:22.678Z,100686.48
2019-02-08T15:20:49.774Z,100682.55
2019-02-08T15:23:18.077Z,100685.14
2019-02-08T15:25:45.177Z,100674.31
2019-02-08T15:28:15.934Z,100680.34
2019-02-08T15:30:43.258Z,100661.98
2019-02-08T15:33:10.345Z,100660.14
2019-02-08T15:35:37.434Z,100664.47
2019-02-08T15:38:05.140Z,100661.70
2019-02-08T15:40:34.872Z,100651.94
2019-02-08T15:43:01.999Z,100629.61
2019-02-08T15:45:29.080Z,100635.04
2019-02-08T15:47:56.300Z,100625.27
2019-02-08T15:50:23.444Z,100628.65
2019-02-08T15:52:50.515Z,100628.79
2019-02-08T15:55:20.063Z,100625.73
2019-02-08T15:57:47.175Z,100618.70
2019-02-08T16:00:17.160Z,100599.42
2019-02-08T16:02:44.215Z,100587.80
2019-02-08T16:05:12.724Z,100584.48
2019-02-08T16:07:39.816Z,100590.72
2019-02-08T16:10:07.476Z,100592.72
2019-02-08T16:12:34.683Z,100593.64
2019-02-08T16:15:01.743Z,100596.09
2019-02-08T16:17:28.822Z,100595.80
2019-02-08T16:19:56.024Z,100594.62
2019-02-08T16:22:23.226Z,100592.07
2019-02-08T16:24:50.427Z,100602.87
2019-02-08T16:27:17.494Z,100598.93
2019-02-08T16:29:44.702Z,100591.58
2019-02-08T16:32:17.768Z,100573.31
2019-02-08T16:34:45.021Z,100584.94
2019-02-08T16:37:12.134Z,100587.50
2019-02-08T16:39:39.222Z,100580.50
2019-02-08T16:42:06.609Z,100572.69
2019-02-08T16:44:33.688Z,100566.80
2019-02-08T16:47:00.889Z,100569.04
2019-02-08T16:49:29.482Z,100567.30
2019-02-08T16:51:56.639Z,100566.09
2019-02-08T16:54:23.746Z,100561.75
2019-02-08T16:56:50.786Z,100559.37
2019-02-08T16:59:17.838Z,100560.47
2019-02-08T17:01:44.945Z,100558.59
2019-02-08T17:04:11.992Z,100551.92
2019-02-08T17:06:39.080Z,100560.73
2019-02-08T17:09:10.487Z,100535.87
2019-02-08T17:11:37.639Z,100535.24
2019-02-08T17:14:04.721Z,100527.79
2019-02-08T17:16:31.833Z,100528.55
2019-02-08T17:18:58.934Z,100525.91
2019-02-08T17:21:26.163Z,100532.84
2019-02-08T17:23:53.636Z,100516.95
2019-02-08T17:26:20.740Z,100516.30
2019-02-08T17:29:06.014Z,100517.55
2019-02-08T17:31:33.299Z,100504.72
2019-02-08T17:34:00.351Z,100501.48
2019-02-08T17:36:27.452Z,100503.55
2019-02-08T17:38:54.576Z,100500.09
2019-02-08T17:41:21.687Z,100506.59
2019-02-08T17:43:48.987Z,100495.86
2019-02-08T17:46:16.084Z,100493.16
2019-02-08T17:48:43.170Z,100486.08
2019-02-08T17:51:10.273Z,100486.47
2019-02-08T17:53:37.416Z,100478.09
2019-02-08T17:56:04.490Z,100470.49
2019-02-08T17:58:31.596Z,100467.63
2019-02-08T18:00:59.077Z,100468.94
2019-02-08T18:03:26.242Z,100461.94
2019-02-08T18:05:53.385Z,100461.91
2019-02-08T18:08:20.652Z,100457.69
2019-02-08T18:10:47.937Z,100472.14
2019-02-08T18:13:22.446Z,100447.98
2019-02-08T18:15:49.584Z,100449.35
2019-02-08T18:18:30.337Z,100431.98
2019-02-08T18:21:00.326Z,100452.38
2019-02-08T18:23:27.408Z,100434.44
2019-02-08T18:25:54.622Z,100432.20
2019-02-08T18:28:21.743Z,100428.33
2019-02-08T18:30:48.826Z,100412.11
2019-02-08T18:33:15.957Z,100384.52
2019-02-08T18:35:43.258Z,100406.05
2019-02-08T18:38:10.471Z,100402.42
2019-02-08T18:40:37.607Z,100399.42
2019-02-08T18:43:04.881Z,100400.31
2019-02-08T18:45:32.007Z,100402.16
2019-02-08T18:47:59.104Z,100388.88
2019-02-08T18:50:34.049Z,100389.42
2019-02-08T18:53:01.128Z,100386.80
2019-02-08T18:55:28.334Z,100364.23
2019-02-08T18:57:55.457Z,100381.48
2019-02-08T19:00:24.807Z,100366.69
2019-02-08T19:02:51.950Z,100362.52
2019-02-08T19:05:19.029Z,100349.38
2019-02-08T19:07:46.119Z,100359.95
2019-02-08T19:10:15.338Z,100344.88
2019-02-08T19:13:00.418Z,100348.84
2019-02-08T19:15:27.545Z,100333.25
2019-02-08T19:17:54.655Z,100338.93
2019-02-08T19:20:22.415Z,100321.39
2019-02-08T19:22:49.699Z,100323.11
2019-02-08T19:25:19.338Z,100326.42
2019-02-08T19:27:46.456Z,100305.58
2019-02-08T19:30:16.213Z,100301.13
2019-02-08T19:32:43.291Z,100306.44
2019-02-08T19:35:10.681Z,100300.75
2019-02-08T19:37:45.116Z,100304.64
2019-02-08T19:40:17.730Z,100291.98
2019-02-08T19:42:44.834Z,100290.91
2019-02-08T19:45:13.315Z,100282.17
2019-02-08T19:47:40.545Z,100285.34
2019-02-08T19:50:09.733Z,100275.69
2019-02-08T19:52:36.879Z,100268.16
2019-02-08T19:55:06.789Z,100258.16
2019-02-08T19:57:34.065Z,100247.80
2019-02-08T20:00:01.205Z,100250.84
2019-02-08T20:02:28.352Z,100245.56
2019-02-08T20:04:55.621Z,100249.17
2019-02-08T20:07:22.770Z,100250.92
2019-02-08T20:09:50.000Z,100238.72
2019-02-08T20:12:17.088Z,100243.25
2019-02-08T20:14:44.226Z,100249.34
2019-02-08T20:17:11.335Z,100245.29
2019-02-08T20:19:38.428Z,100246.20
2019-02-08T20:22:05.710Z,100242.26
2019-02-08T20:24:32.776Z,100236.98
2019-02-08T20:26:59.875Z,100228.32
2019-02-08T20:29:26.956Z,100223.42
2019-02-08T20:31:54.234Z,100228.67
2019-02-08T20:34:21.353Z,100219.63
2019-02-08T20:36:48.428Z,100224.94
2019-02-08T20:39:15.658Z,100219.73
2019-02-08T20:41:42.849Z,100206.64
2019-02-08T20:44:09.950Z,100217.91
2019-02-08T20:46:37.054Z,100207.78
2019-02-08T20:49:04.318Z,100202.98
2019-02-08T20:51:31.553Z,100190.86
2019-02-08T20:53:58.708Z,100187.33
2019-02-08T20:56:25.971Z,100179.06
2019-02-08T20:58:53.027Z,100190.78
2019-02-08T21:01:20.156Z,100189.42
2019-02-08T21:03:47.238Z,100170.67
2019-02-08T21:06:14.305Z,100174.02
2019-02-08T21:08:41.470Z,100166.90
2019-02-08T21:11:08.569Z,100160.19
2019-02-08T21:13:35.672Z,100150.94
2019-02-08T21:16:02.999Z,100168.31
2019-02-08T21:18:30.084Z,100166.64
2019-02-08T21:20:57.175Z,100165.31
2019-02-08T21:23:24.499Z,100144.33
2019-02-08T21:25:52.635Z,100148.27
2019-02-08T21:28:19.820Z,100166.62
2019-02-08T21:30:46.915Z,100160.11
2019-02-08T21:33:14.212Z,100165.48
2019-02-08T21:35:41.686Z,100177.30
2019-02-08T21:38:09.016Z,100161.74
2019-02-08T21:40:36.218Z,100161.03
2019-02-08T21:43:04.482Z,100159.49
2019-02-08T21:45:32.494Z,100155.95
2019-02-08T21:48:00.267Z,100158.02
2019-02-08T21:50:28.545Z,100135.11
2019-02-08T21:52:55.628Z,100146.55
2019-02-08T21:55:24.580Z,100136.42
2019-02-08T21:57:51.813Z,100144.84
2019-02-08T22:00:29.763Z,100138.11
2019-02-08T22:02:57.764Z,100134.48
2019-02-08T22:05:27.425Z,100134.57
2019-02-08T22:07:54.505Z,100130.30
2019-02-08T22:10:21.714Z,100129.33
2019-02-08T22:12:48.856Z,100127.05
2019-02-08T22:15:18.381Z,100126.64
2019-02-08T22:18:21.624Z,100128.27
2019-02-08T22:20:48.689Z,100125.53
2019-02-08T22:23:15.781Z,100134.93
2019-02-08T22:25:43.152Z,100116.94
2019-02-08T22:28:10.220Z,100116.77
2019-02-08T22:30:37.720Z,100108.02
2019-02-08T22:33:05.843Z,100100.06
2019-02-08T22:35:32.906Z,100108.23
2019-02-08T22:38:00.028Z,100098.93
2019-02-08T22:40:27.196Z,100095.42
2019-02-08T22:42:54.289Z,100100.14
2019-02-08T22:45:26.732Z,100086.98
2019-02-08T22:47:53.842Z,100081.19
2019-02-08T22:50:20.912Z,100081.55
2019-02-08T22:52:48.062Z,100063.60
2019-02-08T22:55:16.804Z,100069.76
2019-02-08T22:57:43.908Z,100069.70
2019-02-08T23:01:06.622Z,100069.63
2019-02-08T23:03:36.256Z,100057.81
2019-02-08T23:06:05.229Z,100064.33
2019-02-08T23:08:32.400Z,100075.79
2019-02-08T23:10:59.466Z,100070.00
2019-02-08T23:13:26.670Z,100046.78
2019-02-08T23:15:53.791Z,100054.19
2019-02-08T23:18:20.897Z,100056.34
2019-02-08T23:20:48.169Z,100052.81
2019-02-08T23:23:15.245Z,100044.89
2019-02-08T23:25:42.703Z,100047.51
2019-02-08T23:28:09.757Z,100035.27
2019-02-08T23:30:38.061Z,100037.48
2019-02-08T23:33:05.218Z,100031.27
2019-02-08T23:35:32.283Z,100023.41
2019-02-08T23:37:59.367Z,100030.87
2019-02-08T23:40:26.462Z,100025.58
2019-02-08T23:42:53.576Z,100019.52
2019-02-08T23:45:20.810Z,100012.41
2019-02-08T23:47:48.121Z,100013.69
2019-02-08T23:50:15.160Z,100004.56
2019-02-08T23:52:42.237Z,100004.13
2019-02-08T23:55:09.997Z,99988.91
2019-02-08T23:57:37.052Z,100000.75
